Strona główna
METAR-TAF:

METAR-TAF

Lotnisko :

Wings Field

Filadelfia / Blue Bell, Pensylwania, Stany Zjednoczone

Szerokość geograficzna: 40-08-15N, Długość geograficzna: 075-15-54W, wysokość: 92 m

Aktualna obserwacja pogody

Raport powstał 32 minut temu, godzina 08:15 UTC
Wiatr 11 kt od zachodnio-południowy zachód w porywach dochodzący do 17 kt
Temperatura -2°C
Wilgotność 50%
Ciśnienie 1012 hPa
Widzialność: 16.1 km
bezchmurnie

METAR: KLOM 280815Z AUTO 24011G17KT 10SM CLR M02/M11 A2988 RMK AO2 T10201106

czas: 03:47 (08:47 UTC)


TAF: brakujący

Obserwacja i prognoza pogody dla ponad 4000 lotnisk (raport METAR i TAF).

Dostępne stacje oznaczono żółtymi i czerwonymi punktami na mapie.

Najedź kursorem aby zobaczyć nazwę stacji.

Kliknij aby zobaczyć obserwacje i prognozy pogody.

Aby zmienić mapę: kliknij na zielony przycisk z czarnym krzyżykiem, aby powiększyć; na zielony przycisk z myślnikiem, aby pomniejszyć; na zielone strzałki, aby przejść do map sąsiednich.


METAR-TAF: